Time;durP1;ratioP1;P1;durP2;ratioP2;P2;SDS_P1;SDS_P2;PMS_P1;PMS_P2;Temp;Humidity;BMP_temperature;BMP_pressure;BME280_temperature;BME280_humidity;BME280_pressure;Samples;Min_cycle;Max_cycle;Signal;HPM_P1;HPM_P2
2021/03/08 00:01:56;;;;;;;37.28;22.40;;;0.40;99.90;;;;;;5037556;28;20037;-68
2021/03/08 00:04:23;;;;;;;35.80;20.92;;;0.40;99.90;;;;;;5036929;28;20081;-70
2021/03/08 00:06:48;;;;;;;35.40;20.65;;;0.40;99.90;;;;;;5021712;28;20029;-69
2021/03/08 00:09:14;;;;;;;38.70;21.80;;;0.40;99.90;;;;;;5016708;28;20021;-69
2021/03/08 00:11:39;;;;;;;36.33;21.63;;;0.40;99.90;;;;;;5018594;28;20046;-69
2021/03/08 00:14:05;;;;;;;37.08;21.95;;;0.30;99.90;;;;;;5002682;28;20031;-71
2021/03/08 00:16:31;;;;;;;38.88;21.23;;;0.20;99.90;;;;;;4993116;28;20030;-70
2021/03/08 00:18:56;;;;;;;35.00;21.58;;;0.20;99.90;;;;;;4992882;28;20093;-69
2021/03/08 00:21:22;;;;;;;35.58;20.40;;;0.10;99.90;;;;;;4992861;28;20125;-70
2021/03/08 00:23:47;;;;;;;37.33;21.45;;;0.10;99.90;;;;;;5006122;28;20061;-71
2021/03/08 00:26:13;;;;;;;33.55;19.95;;;0.10;99.90;;;;;;5013270;28;20033;-71
2021/03/08 00:28:39;;;;;;;36.88;21.38;;;0.00;99.90;;;;;;5013624;28;20484;-71
2021/03/08 00:31:04;;;;;;;36.67;21.98;;;0.00;99.90;;;;;;5013533;28;20121;-69
2021/03/08 00:33:30;;;;;;;36.97;21.38;;;-0.10;99.90;;;;;;5013021;28;20021;-68
2021/03/08 00:35:56;;;;;;;35.97;21.20;;;-0.10;99.90;;;;;;5013763;28;20417;-71
2021/03/08 00:38:21;;;;;;;38.13;21.45;;;-0.20;99.90;;;;;;5014002;28;20037;-69
2021/03/08 00:40:47;;;;;;;32.92;21.10;;;-0.20;99.90;;;;;;5012282;28;20030;-70
2021/03/08 00:43:12;;;;;;;38.72;20.90;;;-0.20;99.90;;;;;;5012693;28;20026;-69
2021/03/08 00:45:38;;;;;;;40.20;21.92;;;-0.30;99.90;;;;;;5012811;28;20029;-71
2021/03/08 00:48:04;;;;;;;41.63;21.83;;;-0.30;99.90;;;;;;5013152;28;20481;-70
2021/03/08 00:50:30;;;;;;;39.35;22.13;;;-0.30;99.90;;;;;;5013043;28;20025;-70
2021/03/08 00:52:56;;;;;;;40.92;22.02;;;-0.40;99.90;;;;;;5012618;28;20034;-71
2021/03/08 00:55:22;;;;;;;39.10;21.75;;;-0.50;99.90;;;;;;5016002;28;20025;-70
2021/03/08 00:57:48;;;;;;;35.88;21.55;;;-0.40;99.90;;;;;;5020511;28;20081;-70
2021/03/08 01:00:17;;;;;;;43.38;22.23;;;-0.50;99.90;;;;;;5013652;28;20021;-70
2021/03/08 01:02:43;;;;;;;39.85;22.88;;;-0.50;99.90;;;;;;5012492;28;20420;-70
2021/03/08 01:05:09;;;;;;;39.20;22.15;;;-0.50;99.90;;;;;;5012781;28;20104;-70
2021/03/08 01:07:35;;;;;;;37.90;21.15;;;-0.50;99.90;;;;;;5012945;28;20030;-72
2021/03/08 01:10:02;;;;;;;38.58;22.05;;;-0.60;99.90;;;;;;5012527;28;20396;-70
2021/03/08 01:12:28;;;;;;;37.30;21.33;;;-0.60;99.90;;;;;;5012756;28;20026;-70
2021/03/08 01:14:54;;;;;;;38.13;20.92;;;-0.60;99.90;;;;;;5011888;28;20041;-71
2021/03/08 01:17:19;;;;;;;38.10;22.08;;;-0.60;99.90;;;;;;5012656;28;20053;-69
2021/03/08 01:19:45;;;;;;;40.55;22.13;;;-0.70;99.90;;;;;;5010365;28;20026;-70
2021/03/08 01:22:11;;;;;;;43.80;23.23;;;-0.70;99.90;;;;;;5012583;28;20510;-70
2021/03/08 01:24:36;;;;;;;43.88;24.00;;;-0.80;99.90;;;;;;5011766;28;20026;-70
2021/03/08 01:27:02;;;;;;;38.08;22.15;;;-0.90;99.90;;;;;;5022951;23;20050;-70
2021/03/08 01:29:28;;;;;;;45.67;23.23;;;-0.90;99.90;;;;;;4991924;28;20034;-70
2021/03/08 01:31:53;;;;;;;38.95;21.98;;;-1.00;99.90;;;;;;4992398;28;20112;-68
2021/03/08 01:34:19;;;;;;;46.15;22.73;;;-1.00;99.90;;;;;;4991886;28;20100;-68
2021/03/08 01:36:45;;;;;;;40.55;22.65;;;-1.00;99.90;;;;;;4992598;28;20047;-69
2021/03/08 01:39:10;;;;;;;39.30;22.42;;;-1.00;99.90;;;;;;4991147;28;20029;-68
2021/03/08 01:41:36;;;;;;;39.28;22.33;;;-1.10;99.90;;;;;;5009273;28;20034;-70
2021/03/08 01:44:02;;;;;;;43.65;24.85;;;-1.00;99.90;;;;;;5011444;28;20026;-68
2021/03/08 01:46:28;;;;;;;39.50;22.20;;;-1.10;99.90;;;;;;5011772;28;20033;-69
2021/03/08 01:48:54;;;;;;;40.80;21.33;;;-1.10;99.90;;;;;;5011963;28;20469;-69
2021/03/08 01:51:20;;;;;;;47.92;23.55;;;-1.10;99.90;;;;;;5010638;28;20029;-68
2021/03/08 01:53:46;;;;;;;43.65;23.73;;;-1.20;99.90;;;;;;5009904;28;20026;-69
2021/03/08 01:56:12;;;;;;;42.28;23.40;;;-1.20;99.90;;;;;;5011913;28;20065;-69
2021/03/08 01:58:39;;;;;;;41.20;24.23;;;-1.20;99.90;;;;;;5011229;28;20053;-68
2021/03/08 02:01:05;;;;;;;40.50;23.13;;;-1.20;99.90;;;;;;5013057;28;20460;-69
2021/03/08 02:03:31;;;;;;;46.58;23.85;;;-1.30;99.90;;;;;;5012790;28;20025;-68
2021/03/08 02:05:56;;;;;;;45.75;25.17;;;-1.30;99.90;;;;;;5012088;28;20030;-68
2021/03/08 02:08:25;;;;;;;41.42;23.55;;;-1.30;99.90;;;;;;5010625;28;20022;-68
2021/03/08 02:10:51;;;;;;;41.63;23.38;;;-1.40;99.90;;;;;;5010524;28;20033;-68
2021/03/08 02:13:47;;;;;;;42.03;23.25;;;-1.40;99.90;;;;;;5011092;28;20033;-68
2021/03/08 02:16:26;;;;;;;42.22;23.45;;;-1.40;99.90;;;;;;5013492;28;20037;-68
2021/03/08 02:19:25;;;;;;;41.67;21.83;;;-1.50;99.90;;;;;;5011640;28;20044;-68
2021/03/08 02:22:32;;;;;;;45.42;23.63;;;-1.50;99.90;;;;;;5011891;28;20113;-69
2021/03/08 02:25:17;;;;;;;42.25;22.45;;;-1.50;99.90;;;;;;5010704;28;20030;-68
2021/03/08 02:28:09;;;;;;;44.25;22.55;;;-1.50;99.90;;;;;;5011622;28;20368;-69
2021/03/08 02:30:48;;;;;;;43.08;24.10;;;-1.60;99.90;;;;;;5011329;28;20353;-69
2021/03/08 02:33:28;;;;;;;46.67;23.05;;;-1.60;99.90;;;;;;5009750;28;20029;-69
2021/03/08 02:35:57;;;;;;;38.67;21.80;;;-1.60;99.90;;;;;;5009847;28;20125;-68
2021/03/08 02:38:27;;;;;;;43.70;23.08;;;-1.60;99.90;;;;;;5011479;28;20022;-71
2021/03/08 02:41:05;;;;;;;42.70;24.42;;;-1.60;99.90;;;;;;5011779;28;20048;-68
2021/03/08 02:43:51;;;;;;;43.13;23.33;;;-1.60;99.90;;;;;;5014936;28;20073;-69
2021/03/08 02:46:21;;;;;;;45.60;23.92;;;-1.70;99.90;;;;;;5014005;28;20100;-68
2021/03/08 02:48:48;;;;;;;45.63;24.85;;;-1.80;99.90;;;;;;5015211;28;20075;-69
2021/03/08 02:51:15;;;;;;;41.05;22.10;;;-1.80;99.90;;;;;;5015365;28;20025;-69
2021/03/08 02:53:44;;;;;;;41.47;22.83;;;-1.90;99.90;;;;;;5014422;28;20482;-69
2021/03/08 02:56:22;;;;;;;45.35;24.40;;;-1.90;99.90;;;;;;5015093;28;20093;-69
2021/03/08 02:58:50;;;;;;;44.00;23.73;;;-1.90;99.90;;;;;;5013953;28;20026;-68
2021/03/08 03:01:19;;;;;;;41.55;22.73;;;-1.90;99.90;;;;;;5015101;28;20109;-69
2021/03/08 03:03:50;;;;;;;45.08;24.58;;;-2.00;99.90;;;;;;5014457;28;20032;-69
2021/03/08 03:06:18;;;;;;;42.57;22.83;;;-2.00;99.90;;;;;;5015078;28;20484;-68
2021/03/08 03:08:45;;;;;;;47.75;24.33;;;-2.00;99.90;;;;;;5014789;28;20300;-68
2021/03/08 03:11:12;;;;;;;45.38;23.55;;;-1.90;99.90;;;;;;5014840;28;20132;-68
2021/03/08 03:13:41;;;;;;;42.95;23.25;;;-2.00;99.90;;;;;;5014327;28;20029;-68
2021/03/08 03:16:08;;;;;;;38.65;21.25;;;-2.00;99.90;;;;;;5014808;28;20030;-68
2021/03/08 03:18:36;;;;;;;38.10;21.80;;;-2.00;99.90;;;;;;5016990;28;20416;-69
2021/03/08 03:21:05;;;;;;;42.25;22.23;;;-2.00;99.90;;;;;;5015515;28;20029;-69
2021/03/08 03:23:33;;;;;;;41.28;22.77;;;-2.00;99.90;;;;;;5013362;28;20104;-68
2021/03/08 03:26:01;;;;;;;42.33;22.27;;;-2.10;99.90;;;;;;5014868;28;20041;-69
2021/03/08 03:28:27;;;;;;;37.30;21.30;;;-2.10;99.90;;;;;;5014694;28;20033;-69
2021/03/08 03:30:54;;;;;;;42.50;23.40;;;-2.20;99.90;;;;;;5014191;28;20029;-69
2021/03/08 03:33:20;;;;;;;42.53;23.65;;;-2.20;99.90;;;;;;5015621;28;20029;-68
2021/03/08 03:35:47;;;;;;;43.67;24.17;;;-2.40;99.90;;;;;;5014277;28;20041;-69
2021/03/08 03:38:17;;;;;;;41.88;22.35;;;-2.20;99.90;;;;;;5017392;28;20102;-69
2021/03/08 03:40:43;;;;;;;43.08;23.77;;;-2.20;99.90;;;;;;5014354;28;20040;-68
2021/03/08 03:43:09;;;;;;;43.88;23.13;;;-2.30;99.90;;;;;;5013572;28;20104;-68
2021/03/08 03:45:34;;;;;;;49.95;24.27;;;-2.30;99.90;;;;;;5013927;28;20053;-70
2021/03/08 03:48:00;;;;;;;39.03;23.15;;;-2.30;99.90;;;;;;5014298;28;20036;-70
2021/03/08 03:50:26;;;;;;;45.88;22.90;;;-2.30;99.90;;;;;;5014009;28;20033;-70
2021/03/08 03:52:52;;;;;;;43.40;23.90;;;-2.30;99.90;;;;;;5011488;28;20033;-69
2021/03/08 03:55:19;;;;;;;42.88;23.27;;;-2.40;99.90;;;;;;5014166;28;20400;-70
2021/03/08 03:57:44;;;;;;;41.50;22.30;;;-2.40;99.90;;;;;;5014160;28;20018;-70
2021/03/08 04:00:11;;;;;;;43.70;23.98;;;-2.50;99.90;;;;;;5013721;28;20534;-69
2021/03/08 04:02:47;;;;;;;42.20;22.48;;;-2.50;99.90;;;;;;5013349;28;20026;-69
2021/03/08 04:05:20;;;;;;;41.00;22.77;;;-2.50;99.90;;;;;;5013649;28;20036;-69
2021/03/08 04:07:47;;;;;;;43.75;23.67;;;-2.60;99.90;;;;;;5013837;28;20458;-69
2021/03/08 04:10:13;;;;;;;43.83;22.48;;;-2.60;99.90;;;;;;5013983;28;20037;-69
2021/03/08 04:12:43;;;;;;;40.80;22.45;;;-2.60;99.90;;;;;;5013342;28;20503;-69
2021/03/08 04:15:10;;;;;;;46.53;23.52;;;-2.60;99.90;;;;;;5013411;28;20392;-69
2021/03/08 04:17:39;;;;;;;44.78;24.63;;;-2.70;99.90;;;;;;5013592;28;20026;-69
2021/03/08 04:20:10;;;;;;;42.00;22.02;;;-2.70;99.90;;;;;;5013670;28;20373;-69
2021/03/08 04:22:37;;;;;;;42.92;23.02;;;-2.70;99.90;;;;;;5013736;28;20026;-69
2021/03/08 04:25:04;;;;;;;46.28;23.10;;;-2.70;99.90;;;;;;5012067;28;20030;-69
2021/03/08 04:27:30;;;;;;;40.88;21.80;;;-2.70;99.90;;;;;;5013402;28;20570;-69
2021/03/08 04:29:57;;;;;;;41.00;22.30;;;-2.70;99.90;;;;;;5011941;28;20026;-69
2021/03/08 04:32:24;;;;;;;46.15;24.42;;;-2.80;99.90;;;;;;5013411;28;20026;-69
2021/03/08 04:34:50;;;;;;;37.30;21.17;;;-2.80;99.90;;;;;;5012998;28;20368;-69
2021/03/08 04:37:17;;;;;;;40.33;21.48;;;-2.80;99.90;;;;;;5015128;28;20018;-69
2021/03/08 04:39:44;;;;;;;44.42;22.10;;;-2.90;99.90;;;;;;5016776;28;20064;-69
2021/03/08 04:42:12;;;;;;;36.97;20.55;;;-2.90;99.90;;;;;;5012367;28;20114;-69
2021/03/08 04:44:40;;;;;;;41.95;22.98;;;-2.90;99.90;;;;;;5012779;28;20021;-71
2021/03/08 04:47:08;;;;;;;42.80;22.33;;;-2.90;99.90;;;;;;5013079;28;20029;-69
2021/03/08 04:49:35;;;;;;;45.28;23.95;;;-3.00;99.90;;;;;;5013083;28;20037;-70
2021/03/08 04:52:01;;;;;;;43.47;23.90;;;-3.00;99.90;;;;;;5013325;28;20022;-68
2021/03/08 04:54:28;;;;;;;43.03;22.92;;;-3.00;99.90;;;;;;5012423;28;20014;-68
2021/03/08 04:56:55;;;;;;;45.25;22.63;;;-3.00;99.90;;;;;;5012753;28;20029;-68
2021/03/08 04:59:22;;;;;;;45.35;22.27;;;-3.00;99.90;;;;;;5012578;28;20144;-67
2021/03/08 05:01:49;;;;;;;43.75;23.08;;;-3.00;99.90;;;;;;5011404;28;20033;-68
2021/03/08 05:04:16;;;;;;;40.60;21.92;;;-3.10;99.90;;;;;;5011961;28;20105;-68
2021/03/08 05:06:42;;;;;;;40.38;22.92;;;-3.10;99.90;;;;;;5012658;28;20137;-68
2021/03/08 05:09:14;;;;;;;42.53;21.98;;;-3.10;99.90;;;;;;5013009;28;20501;-68
2021/03/08 05:11:43;;;;;;;46.17;22.88;;;-3.10;99.90;;;;;;5012796;28;20044;-68
2021/03/08 05:14:14;;;;;;;49.58;24.92;;;-3.10;99.90;;;;;;5011984;28;20499;-68
2021/03/08 05:16:43;;;;;;;40.65;23.67;;;-3.10;99.90;;;;;;5012549;28;20114;-69
2021/03/08 05:19:10;;;;;;;42.97;21.95;;;-3.10;99.90;;;;;;5011566;28;20092;-68
2021/03/08 05:21:36;;;;;;;42.25;24.02;;;-3.20;99.90;;;;;;5012144;28;20026;-69
2021/03/08 05:24:03;;;;;;;43.97;23.60;;;-3.20;99.90;;;;;;5010610;28;20026;-69
2021/03/08 05:26:30;;;;;;;44.13;22.20;;;-3.20;99.90;;;;;;4994019;28;20062;-68
2021/03/08 05:28:56;;;;;;;44.20;22.73;;;-3.30;99.90;;;;;;4995009;28;20049;-69
2021/03/08 05:31:27;;;;;;;41.42;21.65;;;-3.30;99.90;;;;;;5008788;28;20025;-68
2021/03/08 05:33:58;;;;;;;50.03;23.90;;;-3.30;99.90;;;;;;4991997;28;20065;-69
2021/03/08 05:36:24;;;;;;;42.47;22.50;;;-3.40;99.90;;;;;;4992279;28;20477;-68
2021/03/08 05:38:51;;;;;;;42.20;22.13;;;-3.30;99.90;;;;;;4989359;28;20158;-68
2021/03/08 05:42:02;;;;;;;45.80;23.58;;;-3.30;99.90;;;;;;4984249;28;20026;-68
2021/03/08 05:44:30;;;;;;;46.60;22.67;;;-3.30;99.90;;;;;;4960137;28;20070;-68
2021/03/08 05:47:02;;;;;;;45.85;23.65;;;-3.30;99.90;;;;;;4989262;28;20061;-68
2021/03/08 05:49:46;;;;;;;44.72;22.92;;;-3.30;99.90;;;;;;4992371;28;20057;-68
2021/03/08 05:52:49;;;;;;;41.85;22.75;;;-3.30;99.90;;;;;;4992164;28;20026;-67
2021/03/08 05:55:47;;;;;;;43.90;21.85;;;-3.20;99.90;;;;;;4971005;28;20031;-67
2021/03/08 05:58:42;;;;;;;45.35;24.25;;;-3.20;99.90;;;;;;4972832;28;20504;-67
2021/03/08 06:01:14;;;;;;;44.55;24.42;;;-3.10;99.90;;;;;;4984468;28;20393;-68
2021/03/08 06:03:53;;;;;;;43.38;23.42;;;-3.10;99.90;;;;;;4991023;28;20566;-67
2021/03/08 06:07:04;;;;;;;45.05;23.77;;;-3.10;99.90;;;;;;4992421;28;20034;-67
2021/03/08 06:09:46;;;;;;;47.50;23.88;;;-3.10;99.90;;;;;;4972840;28;20026;-67
2021/03/08 06:12:21;;;;;;;43.17;23.15;;;-3.00;99.90;;;;;;4971815;28;20027;-68
2021/03/08 06:14:50;;;;;;;44.38;22.98;;;-3.00;99.90;;;;;;4972343;28;20057;-68
2021/03/08 06:17:17;;;;;;;49.83;24.95;;;-3.00;99.90;;;;;;4975436;28;20030;-71
2021/03/08 06:19:44;;;;;;;43.55;24.15;;;-2.80;99.90;;;;;;4996318;28;20019;-74
2021/03/08 06:22:14;;;;;;;41.20;23.10;;;-2.90;99.90;;;;;;4978811;28;20023;-67
2021/03/08 06:24:42;;;;;;;44.13;23.85;;;-2.80;99.90;;;;;;4983773;28;20011;-66
2021/03/08 06:27:10;;;;;;;42.90;23.55;;;-2.80;99.90;;;;;;5006708;28;20089;-67
2021/03/08 06:29:37;;;;;;;42.72;23.70;;;-2.70;99.90;;;;;;5021144;28;20026;-68
2021/03/08 06:32:07;;;;;;;37.97;22.05;;;-2.70;99.90;;;;;;5015989;28;20583;-68
2021/03/08 06:34:34;;;;;;;40.13;21.63;;;-2.70;99.90;;;;;;5000873;28;20018;-69
2021/03/08 06:37:03;;;;;;;37.63;21.85;;;-2.70;99.90;;;;;;4993898;28;20022;-69
2021/03/08 06:39:38;;;;;;;44.17;22.40;;;-2.70;99.90;;;;;;4992993;28;20023;-69
2021/03/08 06:42:04;;;;;;;44.58;21.85;;;-2.50;99.90;;;;;;4992191;28;20022;-69
2021/03/08 06:44:30;;;;;;;46.20;21.73;;;-2.50;99.90;;;;;;4991493;28;20050;-69
2021/03/08 06:46:57;;;;;;;39.20;20.55;;;-2.40;99.90;;;;;;5007270;28;20041;-69
2021/03/08 06:49:22;;;;;;;39.28;21.25;;;-2.40;99.90;;;;;;5012176;28;20030;-70
2021/03/08 06:52:17;;;;;;;35.60;20.17;;;-2.30;99.90;;;;;;5011854;28;20030;-68
2021/03/08 06:54:57;;;;;;;37.80;20.20;;;-2.20;99.90;;;;;;4979939;28;20039;-69
2021/03/08 06:57:24;;;;;;;36.00;20.13;;;-2.10;99.90;;;;;;4973042;28;20553;-69
2021/03/08 06:59:59;;;;;;;35.88;19.98;;;-2.00;99.90;;;;;;4972781;28;20035;-68
2021/03/08 07:02:48;;;;;;;37.53;21.58;;;-2.00;99.90;;;;;;4972942;28;20023;-69
2021/03/08 07:05:27;;;;;;;36.67;20.02;;;-1.90;99.90;;;;;;4971638;28;20098;-70
2021/03/08 07:07:54;;;;;;;41.72;23.40;;;-1.80;99.90;;;;;;4988724;28;20022;-70
2021/03/08 07:10:37;;;;;;;53.33;24.48;;;-1.70;99.90;;;;;;5019339;28;20748;-69
2021/03/08 07:13:04;;;;;;;46.13;22.88;;;-1.50;99.90;;;;;;5017865;28;20255;-70
2021/03/08 07:15:30;;;;;;;41.47;21.73;;;-1.30;99.90;;;;;;5013362;28;20499;-68
2021/03/08 07:17:56;;;;;;;42.63;23.13;;;-1.20;99.90;;;;;;4996060;28;20440;-69
2021/03/08 07:20:26;;;;;;;38.80;21.95;;;-1.30;99.90;;;;;;4992143;28;20030;-69
2021/03/08 07:22:53;;;;;;;40.60;22.48;;;-1.10;99.90;;;;;;4991214;28;20037;-71
2021/03/08 07:25:30;;;;;;;38.78;22.98;;;-1.00;99.90;;;;;;4990225;28;20484;-71
2021/03/08 07:28:00;;;;;;;42.22;22.27;;;-0.80;99.90;;;;;;4993083;28;20030;-71
2021/03/08 07:30:33;;;;;;;44.20;22.60;;;-0.70;99.90;;;;;;4998030;28;20057;-71
2021/03/08 07:33:14;;;;;;;40.42;21.75;;;-0.50;99.90;;;;;;5006196;28;20025;-70
2021/03/08 07:35:40;;;;;;;40.10;22.15;;;-0.50;99.90;;;;;;5000913;28;20028;-68
2021/03/08 07:38:09;;;;;;;37.40;21.85;;;-0.30;99.90;;;;;;5000389;28;20117;-69
2021/03/08 07:40:36;;;;;;;41.65;21.38;;;-0.30;99.90;;;;;;4999023;28;20035;-69
2021/03/08 07:43:02;;;;;;;38.35;21.95;;;-0.20;99.90;;;;;;4996863;28;20573;-70
2021/03/08 07:45:43;;;;;;;38.55;21.85;;;0.00;99.90;;;;;;4996991;28;20106;-70
2021/03/08 07:48:13;;;;;;;40.38;22.52;;;0.20;99.90;;;;;;4997001;28;20030;-68
2021/03/08 07:50:39;;;;;;;35.80;21.17;;;0.40;99.90;;;;;;5012045;28;20034;-68
2021/03/08 07:53:24;;;;;;;36.53;21.88;;;0.50;99.90;;;;;;5007930;28;20019;-68
2021/03/08 07:55:52;;;;;;;34.65;19.80;;;0.70;99.90;;;;;;4987814;28;20033;-69
2021/03/08 07:58:18;;;;;;;35.85;19.85;;;0.90;99.90;;;;;;4994192;28;20073;-69
2021/03/08 08:00:45;;;;;;;36.95;19.77;;;0.80;99.90;;;;;;4994209;28;20022;-69
2021/03/08 08:03:11;;;;;;;35.03;19.30;;;0.80;99.90;;;;;;4993269;28;20034;-69
2021/03/08 08:05:36;;;;;;;34.10;20.02;;;0.90;99.90;;;;;;4993621;28;20031;-69
2021/03/08 08:08:06;;;;;;;35.63;19.50;;;1.30;99.90;;;;;;4993976;28;20100;-69
2021/03/08 08:10:32;;;;;;;33.22;18.83;;;1.50;99.90;;;;;;4993127;28;20088;-69
2021/03/08 08:13:02;;;;;;;33.45;20.02;;;1.50;99.90;;;;;;4993695;28;20485;-69
2021/03/08 08:15:29;;;;;;;36.38;21.17;;;1.70;99.90;;;;;;4994322;28;20088;-68
2021/03/08 08:17:58;;;;;;;35.15;19.73;;;1.90;99.90;;;;;;4994058;28;20054;-69
2021/03/08 08:20:24;;;;;;;35.10;19.45;;;1.80;99.90;;;;;;5009103;28;20025;-68
2021/03/08 08:22:56;;;;;;;28.95;19.17;;;1.90;99.90;;;;;;5013370;28;20099;-70
2021/03/08 08:25:22;;;;;;;30.58;19.33;;;1.90;99.90;;;;;;5013514;28;20033;-68
2021/03/08 08:27:49;;;;;;;28.05;18.98;;;1.90;99.90;;;;;;5013548;28;20254;-68
2021/03/08 08:30:16;;;;;;;29.25;18.63;;;3.30;99.90;;;;;;5011807;28;20045;-68
2021/03/08 08:32:48;;;;;;;34.88;18.95;;;6.50;99.90;;;;;;5011548;28;20057;-67
2021/03/08 08:35:26;;;;;;;24.40;17.45;;;8.60;97.50;;;;;;5013506;28;20042;-68
2021/03/08 08:38:06;;;;;;;23.83;18.08;;;11.10;87.00;;;;;;5012021;28;20068;-68
2021/03/08 08:40:33;;;;;;;23.90;17.35;;;12.90;74.30;;;;;;5012328;28;20559;-69
2021/03/08 08:43:25;;;;;;;23.77;17.25;;;13.70;65.70;;;;;;5013160;28;20037;-67
2021/03/08 08:45:52;;;;;;;27.80;17.63;;;14.00;60.30;;;;;;5011086;28;20069;-67
2021/03/08 08:48:20;;;;;;;25.15;17.48;;;13.80;61.30;;;;;;5013203;28;20109;-67
2021/03/08 08:50:47;;;;;;;24.15;17.13;;;14.00;59.30;;;;;;5013344;28;20051;-68
2021/03/08 08:53:33;;;;;;;22.45;16.35;;;14.50;58.10;;;;;;5010947;28;20037;-69
2021/03/08 08:55:58;;;;;;;19.40;16.75;;;15.40;55.20;;;;;;4997242;28;20030;-68
2021/03/08 08:58:53;;;;;;;18.58;16.58;;;13.20;60.50;;;;;;4993656;28;20033;-68
2021/03/08 09:01:42;;;;;;;22.27;16.83;;;15.10;58.30;;;;;;4991727;28;20116;-68
2021/03/08 09:04:12;;;;;;;19.58;17.15;;;15.30;54.80;;;;;;4973056;28;20389;-69
2021/03/08 09:06:57;;;;;;;20.60;16.15;;;14.60;54.90;;;;;;4974078;28;20054;-68
2021/03/08 09:09:31;;;;;;;21.48;17.00;;;14.40;57.40;;;;;;5024271;23;20081;-73
2021/03/08 09:12:06;;;;;;;19.50;17.38;;;16.60;53.40;;;;;;5046436;28;20017;-74
2021/03/08 09:14:34;;;;;;;22.67;16.27;;;18.30;50.10;;;;;;5013537;28;20108;-73
2021/03/08 09:17:10;;;;;;;18.67;15.35;;;16.30;51.60;;;;;;5007371;28;20013;-71
2021/03/08 09:19:37;;;;;;;18.38;15.85;;;17.10;50.80;;;;;;5005642;28;20480;-72
2021/03/08 09:22:44;;;;;;;22.30;16.17;;;19.30;48.00;;;;;;5011560;28;20033;-72
2021/03/08 09:25:09;;;;;;;17.13;15.43;;;21.20;43.10;;;;;;4985013;28;20432;-72
2021/03/08 09:27:38;;;;;;;18.00;15.85;;;16.60;48.90;;;;;;4997405;28;20034;-72
2021/03/08 09:30:14;;;;;;;16.85;15.05;;;17.50;49.30;;;;;;5005694;28;20117;-72
2021/03/08 09:32:56;;;;;;;18.20;15.30;;;18.10;48.00;;;;;;5015117;28;20494;-75
2021/03/08 09:35:34;;;;;;;17.27;15.25;;;18.50;47.20;;;;;;5014189;28;20013;-71
2021/03/08 09:38:09;;;;;;;17.50;14.73;;;19.40;45.50;;;;;;5012501;28;20033;-72
2021/03/08 09:40:38;;;;;;;16.75;14.23;;;18.60;44.70;;;;;;5012716;28;20068;-72
2021/03/08 09:43:28;;;;;;;18.90;15.20;;;19.80;43.10;;;;;;5011980;28;20034;-74
2021/03/08 09:46:07;;;;;;;17.02;14.75;;;20.20;43.10;;;;;;5017587;28;20092;-72
2021/03/08 09:48:37;;;;;;;17.33;15.40;;;19.80;42.50;;;;;;5026812;28;20030;-71
2021/03/08 09:51:17;;;;;;;15.88;14.15;;;20.50;41.70;;;;;;5026310;28;20026;-73
2021/03/08 09:53:49;;;;;;;16.00;14.50;;;20.10;41.50;;;;;;5029436;28;20030;-74
2021/03/08 09:56:17;;;;;;;18.80;15.35;;;19.10;44.00;;;;;;5024309;28;20032;-74
2021/03/08 09:58:43;;;;;;;17.08;14.75;;;19.50;43.00;;;;;;5013259;28;20069;-73
2021/03/08 10:01:16;;;;;;;15.77;12.88;;;20.40;42.90;;;;;;5013124;28;20593;-73
2021/03/08 10:03:42;;;;;;;16.30;14.05;;;19.90;41.10;;;;;;5012076;28;20026;-73
2021/03/08 10:06:22;;;;;;;20.17;13.55;;;17.80;43.70;;;;;;5012423;28;20034;-74
2021/03/08 10:08:48;;;;;;;20.10;13.95;;;19.20;43.60;;;;;;5012062;28;20126;-75
2021/03/08 10:11:22;;;;;;;17.48;13.93;;;20.00;41.80;;;;;;5011227;28;20066;-73
2021/03/08 10:13:48;;;;;;;17.50;14.02;;;20.80;40.60;;;;;;5011899;28;20033;-74
2021/03/08 10:16:28;;;;;;;15.75;14.07;;;19.50;42.20;;;;;;5012453;28;20026;-74
2021/03/08 10:18:55;;;;;;;11.85;10.65;;;20.50;41.80;;;;;;5009995;28;20053;-72
2021/03/08 10:21:21;;;;;;;11.15;10.05;;;19.80;40.20;;;;;;5011674;28;20857;-73
2021/03/08 10:23:48;;;;;;;11.93;10.60;;;20.10;41.70;;;;;;5011077;28;20025;-75
2021/03/08 10:26:15;;;;;;;11.65;9.27;;;22.10;38.90;;;;;;5012121;28;20499;-75
2021/03/08 10:28:52;;;;;;;9.90;8.90;;;21.60;38.40;;;;;;5011805;28;20084;-76
2021/03/08 10:31:25;;;;;;;10.40;9.38;;;20.90;39.40;;;;;;5012604;28;20503;-75
2021/03/08 10:34:07;;;;;;;11.18;9.40;;;21.70;37.40;;;;;;5012926;28;20520;-75
2021/03/08 10:36:38;;;;;;;10.73;9.68;;;20.80;39.60;;;;;;4999286;28;20049;-74
2021/03/08 10:39:09;;;;;;;11.07;9.98;;;20.70;38.60;;;;;;5024347;28;20030;-73
2021/03/08 10:41:36;;;;;;;12.38;10.70;;;19.90;40.30;;;;;;5025305;28;20026;-74
2021/03/08 10:44:03;;;;;;;13.73;11.85;;;19.60;39.00;;;;;;5023683;28;20022;-74
2021/03/08 10:46:31;;;;;;;12.23;10.05;;;19.20;40.40;;;;;;5026427;28;20034;-73
2021/03/08 10:48:58;;;;;;;13.82;12.32;;;19.20;40.50;;;;;;5026532;28;20033;-73
2021/03/08 10:51:25;;;;;;;11.10;9.93;;;19.30;41.40;;;;;;5025757;28;20041;-71
2021/03/08 10:53:58;;;;;;;12.85;10.13;;;20.10;39.50;;;;;;5024007;28;20018;-70
2021/03/08 10:56:27;;;;;;;12.48;10.73;;;20.40;39.10;;;;;;5019705;28;20427;-70
2021/03/08 10:58:54;;;;;;;11.57;10.50;;;20.60;39.20;;;;;;5018104;28;20014;-71
2021/03/08 11:01:20;;;;;;;11.13;9.95;;;21.30;37.70;;;;;;4998497;28;20030;-69
2021/03/08 11:03:46;;;;;;;13.07;9.65;;;21.80;37.20;;;;;;5011816;28;20029;-73
2021/03/08 11:06:14;;;;;;;10.65;9.55;;;21.70;37.60;;;;;;5031847;28;20098;-74
2021/03/08 11:08:41;;;;;;;10.40;9.40;;;21.90;36.20;;;;;;5029245;28;20051;-74
2021/03/08 11:11:21;;;;;;;10.48;9.40;;;21.90;36.40;;;;;;5027580;28;20049;-74
2021/03/08 11:13:48;;;;;;;11.43;9.68;;;21.40;37.10;;;;;;5022527;28;20022;-76
2021/03/08 11:16:14;;;;;;;11.02;10.00;;;20.20;38.80;;;;;;5016544;28;20026;-72
2021/03/08 11:18:41;;;;;;;10.88;9.88;;;19.40;38.90;;;;;;5016151;28;20022;-75
2021/03/08 11:21:22;;;;;;;10.48;9.57;;;19.80;41.00;;;;;;5015803;28;20036;-74
2021/03/08 11:23:52;;;;;;;11.55;10.45;;;21.10;37.70;;;;;;5014978;28;20073;-74
2021/03/08 11:26:19;;;;;;;13.82;9.75;;;21.50;37.20;;;;;;5015121;28;20525;-74
2021/03/08 11:28:45;;;;;;;10.80;9.75;;;21.00;38.80;;;;;;5014675;28;20068;-74
2021/03/08 11:31:24;;;;;;;10.48;8.65;;;21.10;37.60;;;;;;5015136;28;20030;-74
2021/03/08 11:33:53;;;;;;;10.27;9.27;;;21.20;37.70;;;;;;5014823;28;20033;-73
2021/03/08 11:36:33;;;;;;;10.63;9.60;;;22.10;35.30;;;;;;5015244;28;20026;-74
2021/03/08 11:39:04;;;;;;;11.40;9.77;;;22.10;35.60;;;;;;5014985;28;20094;-75
2021/03/08 11:41:31;;;;;;;12.97;9.60;;;22.10;35.50;;;;;;5015764;28;20104;-75
2021/03/08 11:43:57;;;;;;;10.95;8.88;;;21.70;36.10;;;;;;5011302;28;20026;-74
2021/03/08 11:46:23;;;;;;;12.40;9.48;;;21.80;35.00;;;;;;4996808;28;20088;-75
2021/03/08 11:48:48;;;;;;;10.45;9.27;;;22.00;34.80;;;;;;4995950;28;20026;-74
2021/03/08 11:51:19;;;;;;;10.82;9.75;;;21.80;35.30;;;;;;4995368;28;20076;-74
2021/03/08 11:53:45;;;;;;;10.00;9.00;;;21.10;36.90;;;;;;4995598;28;20092;-73
2021/03/08 11:56:10;;;;;;;10.30;9.38;;;21.80;35.50;;;;;;4995023;28;20536;-74
2021/03/08 11:58:36;;;;;;;11.30;10.02;;;21.70;36.90;;;;;;4994089;28;20392;-75
2021/03/08 12:01:02;;;;;;;10.00;8.73;;;22.00;37.00;;;;;;5017524;28;20044;-76
2021/03/08 12:03:28;;;;;;;6.53;5.93;;;22.10;35.70;;;;;;5018221;28;20124;-71
2021/03/08 12:05:53;;;;;;;9.93;9.02;;;21.20;44.00;;;;;;5014852;28;20037;-70
2021/03/08 12:08:19;;;;;;;9.80;8.90;;;21.90;36.40;;;;;;5015870;28;20033;-72
2021/03/08 12:10:44;;;;;;;9.23;8.10;;;21.00;35.30;;;;;;5013702;28;20029;-72
2021/03/08 12:13:10;;;;;;;10.43;8.63;;;21.00;38.30;;;;;;5012702;28;20022;-71
2021/03/08 12:15:36;;;;;;;9.77;8.50;;;21.40;36.50;;;;;;5012448;28;20376;-73
2021/03/08 12:18:01;;;;;;;9.60;8.60;;;20.80;38.70;;;;;;5015799;28;20022;-73
2021/03/08 12:20:27;;;;;;;10.32;9.38;;;21.90;34.80;;;;;;5014192;28;20471;-72
2021/03/08 12:22:53;;;;;;;9.30;8.48;;;21.30;35.30;;;;;;5014612;28;20033;-72
2021/03/08 12:25:18;;;;;;;11.32;8.82;;;20.80;35.10;;;;;;5014549;28;20057;-72
2021/03/08 12:27:45;;;;;;;10.80;8.05;;;21.70;34.50;;;;;;5015248;28;20045;-73
2021/03/08 12:30:11;;;;;;;11.25;8.25;;;22.50;34.20;;;;;;5015202;28;20033;-73
2021/03/08 12:32:37;;;;;;;10.00;9.00;;;21.40;33.70;;;;;;5012786;28;20025;-74
2021/03/08 12:35:03;;;;;;;10.27;9.07;;;21.10;34.30;;;;;;5015105;28;20028;-74
2021/03/08 12:37:28;;;;;;;13.23;10.18;;;20.60;35.50;;;;;;5016633;28;20041;-74
2021/03/08 12:39:54;;;;;;;10.63;9.63;;;19.90;37.00;;;;;;5015128;28;20026;-74
2021/03/08 12:42:20;;;;;;;11.27;9.65;;;19.60;38.10;;;;;;5014334;28;20040;-74
2021/03/08 12:44:45;;;;;;;9.95;8.75;;;19.70;36.40;;;;;;5016001;28;20365;-73
2021/03/08 12:47:11;;;;;;;11.40;10.25;;;19.30;38.50;;;;;;5014881;28;20026;-73